sensor_id;sensor_type;location;lat;lon;timestamp;temperature;humidity
53599;DHT22;39485;45.702;11.364;2022-09-29T07:02:23;14.00;99.90
53599;DHT22;39485;45.702;11.364;2022-09-29T07:04:48;14.00;99.90
53599;DHT22;39485;45.702;11.364;2022-09-29T07:07:14;14.10;99.90
53599;DHT22;39485;45.702;11.364;2022-09-29T07:09:40;14.20;99.90
53599;DHT22;39485;45.702;11.364;2022-09-29T07:12:06;14.20;99.90
53599;DHT22;39485;45.702;11.364;2022-09-29T07:14:32;14.20;99.90
53599;DHT22;39485;45.702;11.364;2022-09-29T07:16:58;14.30;99.90
53599;DHT22;39485;45.702;11.364;2022-09-29T07:19:23;14.30;99.90
53599;DHT22;39485;45.702;11.364;2022-09-29T07:21:49;14.40;99.90
53599;DHT22;39485;45.702;11.364;2022-09-29T07:24:15;14.40;99.90
53599;DHT22;39485;45.702;11.364;2022-09-29T07:26:41;14.40;99.90
53599;DHT22;39485;45.702;11.364;2022-09-29T07:29:07;14.50;99.90
53599;DHT22;39485;45.702;11.364;2022-09-29T07:31:33;14.50;99.90
53599;DHT22;39485;45.702;11.364;2022-09-29T07:33:59;14.50;99.90
53599;DHT22;39485;45.702;11.364;2022-09-29T07:36:24;14.50;99.90
53599;DHT22;39485;45.702;11.364;2022-09-29T07:38:50;14.60;99.90
53599;DHT22;39485;45.702;11.364;2022-09-29T07:41:17;14.60;99.90
53599;DHT22;39485;45.702;11.364;2022-09-29T07:43:42;14.60;99.90
53599;DHT22;39485;45.702;11.364;2022-09-29T07:46:08;14.60;99.90
53599;DHT22;39485;45.702;11.364;2022-09-29T07:48:34;14.50;99.90
53599;DHT22;39485;45.702;11.364;2022-09-29T07:51:05;14.50;99.90
53599;DHT22;39485;45.702;11.364;2022-09-29T07:53:31;14.50;99.90
53599;DHT22;39485;45.702;11.364;2022-09-29T07:56:06;14.50;99.90
53599;DHT22;39485;45.702;11.364;2022-09-29T07:58:33;14.50;99.90
53599;DHT22;39485;45.702;11.364;2022-09-29T08:00:59;14.40;99.90
53599;DHT22;39485;45.702;11.364;2022-09-29T08:03:25;14.40;99.90
53599;DHT22;39485;45.702;11.364;2022-09-29T08:05:51;14.40;99.90
53599;DHT22;39485;45.702;11.364;2022-09-29T08:08:17;14.30;99.90
53599;DHT22;39485;45.702;11.364;2022-09-29T08:10:42;14.40;99.90
53599;DHT22;39485;45.702;11.364;2022-09-29T08:13:08;14.40;99.90
53599;DHT22;39485;45.702;11.364;2022-09-29T08:15:34;14.40;99.90
53599;DHT22;39485;45.702;11.364;2022-09-29T08:17:59;14.40;99.90
53599;DHT22;39485;45.702;11.364;2022-09-29T08:20:25;14.40;99.90
53599;DHT22;39485;45.702;11.364;2022-09-29T08:22:51;14.40;99.90
53599;DHT22;39485;45.702;11.364;2022-09-29T08:25:17;14.30;99.90
53599;DHT22;39485;45.702;11.364;2022-09-29T08:27:43;14.40;99.90
53599;DHT22;39485;45.702;11.364;2022-09-29T08:30:09;14.40;99.90
53599;DHT22;39485;45.702;11.364;2022-09-29T08:32:35;14.30;99.90
53599;DHT22;39485;45.702;11.364;2022-09-29T08:35:01;14.30;99.90
53599;DHT22;39485;45.702;11.364;2022-09-29T08:37:27;14.30;99.90
53599;DHT22;39485;45.702;11.364;2022-09-29T08:39:52;14.30;99.90
53599;DHT22;39485;45.702;11.364;2022-09-29T08:44:50;14.20;99.90
53599;DHT22;39485;45.702;11.364;2022-09-29T08:47:36;14.30;99.90
53599;DHT22;39485;45.702;11.364;2022-09-29T08:50:14;14.30;99.90
53599;DHT22;39485;45.702;11.364;2022-09-29T08:52:41;14.20;99.90
53599;DHT22;39485;45.702;11.364;2022-09-29T08:57:43;14.30;99.90
53599;DHT22;39485;45.702;11.364;2022-09-29T09:00:13;14.30;99.90
53599;DHT22;39485;45.702;11.364;2022-09-29T09:08:04;14.30;99.90
53599;DHT22;39485;45.702;11.364;2022-09-29T09:15:44;14.30;99.90
53599;DHT22;39485;45.702;11.364;2022-09-29T09:18:21;14.30;99.90
53599;DHT22;39485;45.702;11.364;2022-09-29T09:21:32;14.30;99.90
53599;DHT22;39485;45.702;11.364;2022-09-29T09:26:03;14.30;99.90
53599;DHT22;39485;45.702;11.364;2022-09-29T09:28:30;14.30;99.90
53599;DHT22;39485;45.702;11.364;2022-09-29T09:31:17;14.30;99.90
53599;DHT22;39485;45.702;11.364;2022-09-29T09:36:20;14.50;99.90
53599;DHT22;39485;45.702;11.364;2022-09-29T09:38:54;14.50;99.90
53599;DHT22;39485;45.702;11.364;2022-09-29T09:41:21;14.50;99.90
53599;DHT22;39485;45.702;11.364;2022-09-29T09:43:51;14.60;99.90
53599;DHT22;39485;45.702;11.364;2022-09-29T09:46:20;14.60;99.90
53599;DHT22;39485;45.702;11.364;2022-09-29T09:53:50;14.70;99.90
53599;DHT22;39485;45.702;11.364;2022-09-29T10:01:09;14.70;99.90
53599;DHT22;39485;45.702;11.364;2022-09-29T10:03:36;14.70;99.90
53599;DHT22;39485;45.702;11.364;2022-09-29T10:06:03;14.80;99.90
53599;DHT22;39485;45.702;11.364;2022-09-29T10:08:34;14.70;99.90
53599;DHT22;39485;45.702;11.364;2022-09-29T10:11:07;14.80;99.90
53599;DHT22;39485;45.702;11.364;2022-09-29T10:13:38;14.80;99.90
53599;DHT22;39485;45.702;11.364;2022-09-29T10:16:18;14.90;99.90
53599;DHT22;39485;45.702;11.364;2022-09-29T10:18:46;14.90;99.90
53599;DHT22;39485;45.702;11.364;2022-09-29T10:23:54;15.00;99.90
53599;DHT22;39485;45.702;11.364;2022-09-29T10:26:21;15.00;99.90
53599;DHT22;39485;45.702;11.364;2022-09-29T10:33:56;15.10;99.90
53599;DHT22;39485;45.702;11.364;2022-09-29T10:36:23;15.10;99.90
53599;DHT22;39485;45.702;11.364;2022-09-29T10:38:50;15.10;99.90
53599;DHT22;39485;45.702;11.364;2022-09-29T10:41:17;15.20;99.90
53599;DHT22;39485;45.702;11.364;2022-09-29T10:43:47;15.20;99.90
53599;DHT22;39485;45.702;11.364;2022-09-29T10:49:11;15.20;99.90
53599;DHT22;39485;45.702;11.364;2022-09-29T10:51:38;15.20;99.90
53599;DHT22;39485;45.702;11.364;2022-09-29T10:54:08;15.20;99.90
53599;DHT22;39485;45.702;11.364;2022-09-29T10:56:34;15.20;99.90
53599;DHT22;39485;45.702;11.364;2022-09-29T10:59:00;15.30;99.90
53599;DHT22;39485;45.702;11.364;2022-09-29T11:01:28;15.30;99.90
53599;DHT22;39485;45.702;11.364;2022-09-29T11:03:57;15.30;99.90
53599;DHT22;39485;45.702;11.364;2022-09-29T11:06:28;15.30;99.90
53599;DHT22;39485;45.702;11.364;2022-09-29T11:11:30;15.40;99.90
53599;DHT22;39485;45.702;11.364;2022-09-29T11:13:56;15.50;99.90
53599;DHT22;39485;45.702;11.364;2022-09-29T11:16:32;15.50;99.90
53599;DHT22;39485;45.702;11.364;2022-09-29T11:19:06;15.50;99.90
53599;DHT22;39485;45.702;11.364;2022-09-29T11:24:21;15.70;99.90
53599;DHT22;39485;45.702;11.364;2022-09-29T11:26:46;15.70;99.90
53599;DHT22;39485;45.702;11.364;2022-09-29T11:32:12;15.80;99.90
53599;DHT22;39485;45.702;11.364;2022-09-29T11:39:33;16.10;99.90
53599;DHT22;39485;45.702;11.364;2022-09-29T11:44:59;16.20;99.90
53599;DHT22;39485;45.702;11.364;2022-09-29T11:57:44;16.20;99.90
53599;DHT22;39485;45.702;11.364;2022-09-29T12:00:19;16.20;99.90
53599;DHT22;39485;45.702;11.364;2022-09-29T12:17:38;16.40;99.90
53599;DHT22;39485;45.702;11.364;2022-09-29T12:20:11;16.50;99.90
53599;DHT22;39485;45.702;11.364;2022-09-29T12:22:38;16.50;99.90
53599;DHT22;39485;45.702;11.364;2022-09-29T12:25:04;16.60;99.90
53599;DHT22;39485;45.702;11.364;2022-09-29T12:27:35;16.70;99.90
53599;DHT22;39485;45.702;11.364;2022-09-29T12:30:02;16.80;99.90
53599;DHT22;39485;45.702;11.364;2022-09-29T12:32:33;16.80;99.90
53599;DHT22;39485;45.702;11.364;2022-09-29T12:35:05;16.80;99.90
53599;DHT22;39485;45.702;11.364;2022-09-29T12:40:10;16.80;99.90
53599;DHT22;39485;45.702;11.364;2022-09-29T12:45:19;16.80;99.90
53599;DHT22;39485;45.702;11.364;2022-09-29T12:50:28;16.70;99.90
53599;DHT22;39485;45.702;11.364;2022-09-29T12:53:12;16.70;99.90
53599;DHT22;39485;45.702;11.364;2022-09-29T12:55:58;16.70;99.90
53599;DHT22;39485;45.702;11.364;2022-09-29T12:58:41;16.70;99.90
53599;DHT22;39485;45.702;11.364;2022-09-29T13:03:39;16.90;99.90
53599;DHT22;39485;45.702;11.364;2022-09-29T13:11:37;16.90;99.90
53599;DHT22;39485;45.702;11.364;2022-09-29T13:21:51;17.00;99.90
53599;DHT22;39485;45.702;11.364;2022-09-29T13:24:23;17.00;99.90
53599;DHT22;39485;45.702;11.364;2022-09-29T13:29:45;17.00;99.90
53599;DHT22;39485;45.702;11.364;2022-09-29T13:32:13;17.10;99.90
53599;DHT22;39485;45.702;11.364;2022-09-29T13:34:38;17.10;99.90
53599;DHT22;39485;45.702;11.364;2022-09-29T13:37:18;17.10;99.90
53599;DHT22;39485;45.702;11.364;2022-09-29T13:53:07;16.80;99.90
53599;DHT22;39485;45.702;11.364;2022-09-29T13:55:49;16.80;99.90
53599;DHT22;39485;45.702;11.364;2022-09-29T14:00:47;16.70;99.90
53599;DHT22;39485;45.702;11.364;2022-09-29T14:03:34;16.80;99.90
53599;DHT22;39485;45.702;11.364;2022-09-29T14:06:06;16.80;99.90
53599;DHT22;39485;45.702;11.364;2022-09-29T14:08:36;16.80;99.90
53599;DHT22;39485;45.702;11.364;2022-09-29T14:11:05;16.70;99.90
53599;DHT22;39485;45.702;11.364;2022-09-29T14:13:39;16.70;99.90
53599;DHT22;39485;45.702;11.364;2022-09-29T14:18:34;16.70;99.90
53599;DHT22;39485;45.702;11.364;2022-09-29T14:21:04;16.70;99.90
53599;DHT22;39485;45.702;11.364;2022-09-29T14:23:49;16.70;99.90
53599;DHT22;39485;45.702;11.364;2022-09-29T14:27:06;16.60;99.90
53599;DHT22;39485;45.702;11.364;2022-09-29T14:29:01;16.60;99.90
53599;DHT22;39485;45.702;11.364;2022-09-29T14:31:28;16.50;99.90
53599;DHT22;39485;45.702;11.364;2022-09-29T14:33:54;16.50;99.90
53599;DHT22;39485;45.702;11.364;2022-09-29T14:36:20;16.40;99.90
53599;DHT22;39485;45.702;11.364;2022-09-29T14:38:53;16.40;99.90
53599;DHT22;39485;45.702;11.364;2022-09-29T14:41:29;16.30;99.90
53599;DHT22;39485;45.702;11.364;2022-09-29T14:44:08;16.20;99.90
53599;DHT22;39485;45.702;11.364;2022-09-29T14:54:47;15.80;99.90
53599;DHT22;39485;45.702;11.364;2022-09-29T15:02:28;15.70;99.90
53599;DHT22;39485;45.702;11.364;2022-09-29T15:04:55;15.60;99.90
53599;DHT22;39485;45.702;11.364;2022-09-29T15:07:21;15.60;99.90
53599;DHT22;39485;45.702;11.364;2022-09-29T15:09:48;15.50;99.90
53599;DHT22;39485;45.702;11.364;2022-09-29T15:12:19;15.40;99.90
53599;DHT22;39485;45.702;11.364;2022-09-29T15:14:45;15.30;99.90
53599;DHT22;39485;45.702;11.364;2022-09-29T15:27:44;14.10;99.90
53599;DHT22;39485;45.702;11.364;2022-09-29T15:30:15;13.90;99.90
53599;DHT22;39485;45.702;11.364;2022-09-29T15:32:42;13.80;99.90
53599;DHT22;39485;45.702;11.364;2022-09-29T15:35:10;13.80;99.90
53599;DHT22;39485;45.702;11.364;2022-09-29T15:40:15;13.70;99.90
53599;DHT22;39485;45.702;11.364;2022-09-29T15:42:42;13.70;99.90
53599;DHT22;39485;45.702;11.364;2022-09-29T15:45:10;13.70;99.90
53599;DHT22;39485;45.702;11.364;2022-09-29T15:47:38;13.60;99.90
53599;DHT22;39485;45.702;11.364;2022-09-29T15:50:05;13.60;99.90
53599;DHT22;39485;45.702;11.364;2022-09-29T15:52:40;13.60;99.90
53599;DHT22;39485;45.702;11.364;2022-09-29T15:55:10;13.60;99.90
53599;DHT22;39485;45.702;11.364;2022-09-29T15:57:40;13.60;99.90
53599;DHT22;39485;45.702;11.364;2022-09-29T16:05:31;13.70;99.90
53599;DHT22;39485;45.702;11.364;2022-09-29T16:08:01;13.60;99.90
53599;DHT22;39485;45.702;11.364;2022-09-29T16:10:32;13.60;99.90
53599;DHT22;39485;45.702;11.364;2022-09-29T16:12:59;13.60;99.90
53599;DHT22;39485;45.702;11.364;2022-09-29T16:17:55;13.70;99.90
53599;DHT22;39485;45.702;11.364;2022-09-29T16:20:30;13.70;99.90
53599;DHT22;39485;45.702;11.364;2022-09-29T16:23:07;13.70;99.90
53599;DHT22;39485;45.702;11.364;2022-09-29T16:25:33;13.80;99.90
53599;DHT22;39485;45.702;11.364;2022-09-29T16:27:59;13.80;99.90
53599;DHT22;39485;45.702;11.364;2022-09-29T16:30:29;13.80;99.90
53599;DHT22;39485;45.702;11.364;2022-09-29T16:33:00;13.80;99.90
53599;DHT22;39485;45.702;11.364;2022-09-29T16:40:44;13.60;99.90
53599;DHT22;39485;45.702;11.364;2022-09-29T16:43:20;13.60;99.90
53599;DHT22;39485;45.702;11.364;2022-09-29T16:45:48;13.50;99.90
53599;DHT22;39485;45.702;11.364;2022-09-29T16:48:15;13.50;99.90
53599;DHT22;39485;45.702;11.364;2022-09-29T16:50:44;13.50;99.90
53599;DHT22;39485;45.702;11.364;2022-09-29T16:53:17;13.40;99.90
53599;DHT22;39485;45.702;11.364;2022-09-29T16:55:54;13.40;99.90
53599;DHT22;39485;45.702;11.364;2022-09-29T16:58:19;13.30;99.90
53599;DHT22;39485;45.702;11.364;2022-09-29T17:00:45;13.30;99.90
53599;DHT22;39485;45.702;11.364;2022-09-29T17:03:11;13.20;99.90
53599;DHT22;39485;45.702;11.364;2022-09-29T17:05:40;13.20;99.90
53599;DHT22;39485;45.702;11.364;2022-09-29T17:08:19;13.20;99.90
53599;DHT22;39485;45.702;11.364;2022-09-29T17:10:47;13.20;99.90
53599;DHT22;39485;45.702;11.364;2022-09-29T17:13:13;13.20;99.90
53599;DHT22;39485;45.702;11.364;2022-09-29T17:15:40;13.20;99.90
53599;DHT22;39485;45.702;11.364;2022-09-29T17:18:08;13.20;99.90
53599;DHT22;39485;45.702;11.364;2022-09-29T17:20:34;13.20;99.90
53599;DHT22;39485;45.702;11.364;2022-09-29T17:23:00;13.20;99.90
53599;DHT22;39485;45.702;11.364;2022-09-29T17:25:25;13.20;99.90
53599;DHT22;39485;45.702;11.364;2022-09-29T17:27:51;13.20;99.90
53599;DHT22;39485;45.702;11.364;2022-09-29T17:30:35;13.20;99.90
53599;DHT22;39485;45.702;11.364;2022-09-29T17:33:01;13.20;99.90
53599;DHT22;39485;45.702;11.364;2022-09-29T17:35:29;13.10;99.90
53599;DHT22;39485;45.702;11.364;2022-09-29T17:37:55;13.10;99.90
53599;DHT22;39485;45.702;11.364;2022-09-29T17:40:23;13.10;99.90
53599;DHT22;39485;45.702;11.364;2022-09-29T17:42:49;13.20;99.90
53599;DHT22;39485;45.702;11.364;2022-09-29T17:45:18;13.10;99.90
53599;DHT22;39485;45.702;11.364;2022-09-29T17:47:44;13.10;99.90
53599;DHT22;39485;45.702;11.364;2022-09-29T17:50:17;13.10;99.90
53599;DHT22;39485;45.702;11.364;2022-09-29T17:52:44;13.10;99.90
53599;DHT22;39485;45.702;11.364;2022-09-29T17:55:10;13.20;99.90
53599;DHT22;39485;45.702;11.364;2022-09-29T17:57:36;13.20;99.90
53599;DHT22;39485;45.702;11.364;2022-09-29T18:00:03;13.20;99.90
53599;DHT22;39485;45.702;11.364;2022-09-29T18:02:28;13.20;99.90
53599;DHT22;39485;45.702;11.364;2022-09-29T18:04:54;13.20;99.90
53599;DHT22;39485;45.702;11.364;2022-09-29T18:07:19;13.20;99.90
53599;DHT22;39485;45.702;11.364;2022-09-29T18:09:45;13.20;99.90
53599;DHT22;39485;45.702;11.364;2022-09-29T18:12:11;13.20;99.90
53599;DHT22;39485;45.702;11.364;2022-09-29T18:14:37;13.20;99.90
53599;DHT22;39485;45.702;11.364;2022-09-29T18:17:03;13.20;99.90
53599;DHT22;39485;45.702;11.364;2022-09-29T18:19:30;13.20;99.90
53599;DHT22;39485;45.702;11.364;2022-09-29T18:21:56;13.20;99.90
53599;DHT22;39485;45.702;11.364;2022-09-29T18:24:23;13.10;99.90
53599;DHT22;39485;45.702;11.364;2022-09-29T18:26:48;13.20;99.90
53599;DHT22;39485;45.702;11.364;2022-09-29T18:29:17;13.20;99.90
53599;DHT22;39485;45.702;11.364;2022-09-29T18:31:43;13.20;99.90
53599;DHT22;39485;45.702;11.364;2022-09-29T18:34:19;13.20;99.90
53599;DHT22;39485;45.702;11.364;2022-09-29T18:36:45;13.10;99.90
53599;DHT22;39485;45.702;11.364;2022-09-29T18:39:11;13.20;99.90
53599;DHT22;39485;45.702;11.364;2022-09-29T18:41:36;13.20;99.90
53599;DHT22;39485;45.702;11.364;2022-09-29T18:44:12;13.20;99.90
53599;DHT22;39485;45.702;11.364;2022-09-29T18:46:38;13.20;99.90
53599;DHT22;39485;45.702;11.364;2022-09-29T18:49:04;13.20;99.90
53599;DHT22;39485;45.702;11.364;2022-09-29T18:51:30;13.20;99.90
53599;DHT22;39485;45.702;11.364;2022-09-29T18:53:55;13.20;99.90
53599;DHT22;39485;45.702;11.364;2022-09-29T18:56:23;13.20;99.90
53599;DHT22;39485;45.702;11.364;2022-09-29T18:58:48;13.20;99.90
53599;DHT22;39485;45.702;11.364;2022-09-29T19:01:15;13.20;99.90
53599;DHT22;39485;45.702;11.364;2022-09-29T19:03:42;13.20;99.90
53599;DHT22;39485;45.702;11.364;2022-09-29T19:06:09;13.10;99.90
53599;DHT22;39485;45.702;11.364;2022-09-29T19:08:37;13.10;99.90
53599;DHT22;39485;45.702;11.364;2022-09-29T19:11:11;13.10;99.90
53599;DHT22;39485;45.702;11.364;2022-09-29T19:13:40;13.10;99.90
53599;DHT22;39485;45.702;11.364;2022-09-29T19:16:06;13.10;99.90
53599;DHT22;39485;45.702;11.364;2022-09-29T19:18:31;13.20;99.90
53599;DHT22;39485;45.702;11.364;2022-09-29T19:20:57;13.20;99.90
53599;DHT22;39485;45.702;11.364;2022-09-29T19:23:24;13.20;99.90
53599;DHT22;39485;45.702;11.364;2022-09-29T19:25:50;13.20;99.90
53599;DHT22;39485;45.702;11.364;2022-09-29T19:28:16;13.20;99.90
53599;DHT22;39485;45.702;11.364;2022-09-29T19:30:42;13.30;99.90
53599;DHT22;39485;45.702;11.364;2022-09-29T19:33:09;13.20;99.90
53599;DHT22;39485;45.702;11.364;2022-09-29T19:35:35;13.30;99.90
53599;DHT22;39485;45.702;11.364;2022-09-29T19:38:02;13.30;99.90
53599;DHT22;39485;45.702;11.364;2022-09-29T19:40:30;13.30;99.90
53599;DHT22;39485;45.702;11.364;2022-09-29T19:42:56;13.30;99.90
53599;DHT22;39485;45.702;11.364;2022-09-29T19:45:24;13.30;99.90
53599;DHT22;39485;45.702;11.364;2022-09-29T19:47:51;13.30;99.90
53599;DHT22;39485;45.702;11.364;2022-09-29T19:50:21;13.30;99.90
53599;DHT22;39485;45.702;11.364;2022-09-29T19:53:05;13.30;99.90
